Time;durP1;ratioP1;P1;durP2;ratioP2;P2;SDS_P1;SDS_P2;PMS_P1;PMS_P2;Temp;Humidity;BMP_temperature;BMP_pressure;BME280_temperature;BME280_humidity;BME280_pressure;Samples;Min_cycle;Max_cycle;Signal;HPM_P1;HPM_P2
2022/08/05 00:00:21;;;;;;;2.53;2.00;;;;;24.90;94031.00;;;;7396309;19;20140;-77
2022/08/05 00:02:49;;;;;;;2.70;1.90;;;;;25.50;94035.00;;;;7393399;19;20657;-77
2022/08/05 00:05:24;;;;;;;7.50;2.00;;;;;25.90;94034.00;;;;7395071;19;20457;-78
2022/08/05 00:08:11;;;;;;;4.50;2.03;;;;;25.70;94028.00;;;;7395984;19;20148;-78
2022/08/05 00:11:07;;;;;;;6.25;2.83;;;;;25.80;94026.00;;;;7395033;19;20595;-78
2022/08/05 00:13:54;;;;;;;4.57;2.00;;;;;25.70;94033.00;;;;7395213;19;20137;-77
2022/08/05 00:16:39;;;;;;;9.52;2.25;;;;;25.70;94033.00;;;;7392399;19;20469;-78
2022/08/05 00:19:23;;;;;;;3.30;2.22;;;;;25.60;94032.00;;;;7394124;19;20139;-79
2022/08/05 00:22:07;;;;;;;4.72;2.10;;;;;25.70;94027.00;;;;7392673;19;20216;-77
2022/08/05 00:24:38;;;;;;;4.10;2.03;;;;;25.70;94029.00;;;;7394836;19;20607;-76
2022/08/05 00:27:21;;;;;;;5.45;1.88;;;;;25.80;94034.00;;;;7395072;19;20209;-78
2022/08/05 00:30:03;;;;;;;2.97;2.10;;;;;26.00;94026.00;;;;7396208;19;20624;-75
2022/08/05 00:32:39;;;;;;;2.10;1.83;;;;;25.90;94029.00;;;;7392585;19;20139;-75
2022/08/05 00:35:07;;;;;;;3.45;1.90;;;;;25.70;94028.00;;;;7395268;19;20193;-75
2022/08/05 00:37:35;;;;;;;2.15;1.95;;;;;25.80;94034.00;;;;7394435;19;20483;-76
2022/08/05 00:40:23;;;;;;;5.35;2.25;;;;;25.80;94034.00;;;;7395466;19;20651;-76
2022/08/05 00:43:00;;;;;;;1.98;1.65;;;;;25.60;94040.00;;;;7393023;19;20125;-76
2022/08/05 00:45:42;;;;;;;2.22;1.67;;;;;25.50;94044.00;;;;7397324;19;20459;-76
2022/08/05 00:48:12;;;;;;;4.85;2.17;;;;;25.50;94049.00;;;;7395118;19;20602;-74
2022/08/05 00:50:58;;;;;;;3.10;1.58;;;;;25.40;94053.00;;;;7391387;19;20148;-75
2022/08/05 00:53:25;;;;;;;4.95;2.30;;;;;25.30;94058.00;;;;7390865;19;20140;-78
2022/08/05 00:56:19;;;;;;;3.80;1.80;;;;;25.10;94061.00;;;;7394640;19;20152;-78
2022/08/05 00:58:49;;;;;;;4.95;2.30;;;;;25.00;94065.00;;;;7392508;19;20140;-79
2022/08/05 01:01:26;;;;;;;4.32;2.08;;;;;24.80;94053.00;;;;7390917;19;20498;-78
2022/08/05 01:04:13;;;;;;;2.58;2.03;;;;;24.70;94053.00;;;;7393575;19;20481;-76
2022/08/05 01:06:56;;;;;;;3.40;1.90;;;;;24.60;94059.00;;;;7392593;19;20160;-77
2022/08/05 01:09:25;;;;;;;2.30;2.10;;;;;24.50;94054.00;;;;7392685;19;20156;-76
2022/08/05 01:12:05;;;;;;;3.97;2.10;;;;;24.50;94063.00;;;;7394294;19;20132;-76
2022/08/05 01:14:57;;;;;;;4.90;2.40;;;;;24.40;94061.00;;;;7391411;19;20503;-75
2022/08/05 01:17:34;;;;;;;4.65;2.67;;;;;24.50;94065.00;;;;7392378;19;20137;-78
2022/08/05 01:20:31;;;;;;;6.80;2.50;;;;;24.30;94063.00;;;;7391467;19;20187;-77
2022/08/05 01:23:12;;;;;;;5.85;2.60;;;;;24.30;94064.00;;;;7391964;19;20198;-76
2022/08/05 01:26:01;;;;;;;4.22;2.50;;;;;24.10;94054.00;;;;7393881;19;20204;-78
2022/08/05 01:28:42;;;;;;;4.10;2.80;;;;;24.20;94062.00;;;;7394672;19;20486;-77
2022/08/05 01:31:27;;;;;;;5.93;2.63;;;;;23.90;94071.00;;;;7393004;19;20128;-79
2022/08/05 01:34:14;;;;;;;6.07;2.67;;;;;23.70;94062.00;;;;7393539;19;20151;-75
2022/08/05 01:36:49;;;;;;;10.30;2.95;;;;;23.60;94073.00;;;;7390874;19;20152;-76
2022/08/05 01:39:28;;;;;;;3.28;2.70;;;;;23.50;94064.00;;;;7390957;19;20587;-75
2022/08/05 01:42:16;;;;;;;9.13;3.17;;;;;23.30;94075.00;;;;7391869;19;20210;-76
2022/08/05 01:44:52;;;;;;;5.70;3.10;;;;;23.30;94080.00;;;;7391805;19;20606;-75
2022/08/05 01:47:22;;;;;;;7.60;3.10;;;;;23.20;94078.00;;;;7393032;19;20130;-78
2022/08/05 01:50:09;;;;;;;7.70;2.95;;;;;23.10;94077.00;;;;7391436;19;20201;-75
2022/08/05 01:52:47;;;;;;;14.20;3.50;;;;;23.10;94075.00;;;;7393260;19;20133;-75
2022/08/05 01:55:19;;;;;;;9.45;3.20;;;;;23.00;94068.00;;;;7391016;19;20137;-76
2022/08/05 01:57:54;;;;;;;5.40;3.10;;;;;22.90;94073.00;;;;7404164;19;20192;-74
2022/08/05 02:00:45;;;;;;;7.75;2.92;;;;;22.80;94065.00;;;;7401480;19;20608;-74
2022/08/05 02:03:35;;;;;;;7.80;3.53;;;;;22.60;94069.00;;;;7404496;19;20172;-76
2022/08/05 02:06:05;;;;;;;13.23;3.17;;;;;22.60;94070.00;;;;7408523;19;20456;-76
2022/08/05 02:08:59;;;;;;;6.65;3.00;;;;;22.80;94065.00;;;;7405254;19;20140;-76
2022/08/05 02:11:41;;;;;;;9.30;3.75;;;;;22.70;94072.00;;;;7405291;19;20140;-76
2022/08/05 02:14:46;;;;;;;8.80;3.38;;;;;22.50;94072.00;;;;7405391;19;20156;-75
2022/08/05 02:17:30;;;;;;;11.00;3.30;;;;;22.40;94068.00;;;;7406215;19;21166;-78
2022/08/05 02:20:33;;;;;;;7.20;3.40;;;;;22.30;94071.00;;;;7404047;19;20153;-76
2022/08/05 02:23:10;;;;;;;10.82;4.15;;;;;22.50;94071.00;;;;7403551;19;20148;-78
2022/08/05 02:25:46;;;;;;;8.00;3.20;;;;;22.40;94077.00;;;;7403816;19;20141;-77
2022/08/05 02:28:22;;;;;;;17.48;3.63;;;;;22.30;94078.00;;;;7406568;19;20169;-77
2022/08/05 02:31:25;;;;;;;5.97;3.20;;;;;22.30;94077.00;;;;7405019;19;20132;-77
2022/08/05 02:33:59;;;;;;;11.02;3.45;;;;;22.40;94083.00;;;;7405450;19;20139;-78
2022/08/05 02:36:44;;;;;;;7.93;3.65;;;;;22.50;94090.00;;;;7407368;19;20132;-77
2022/08/05 02:39:16;;;;;;;8.00;3.70;;;;;22.40;94091.00;;;;7404133;19;20155;-77
2022/08/05 02:41:52;;;;;;;7.05;3.58;;;;;22.40;94100.00;;;;7406414;19;20117;-76
2022/08/05 02:44:29;;;;;;;15.25;4.38;;;;;22.60;94102.00;;;;7408128;19;20140;-77
2022/08/05 02:47:07;;;;;;;5.45;3.65;;;;;22.50;94101.00;;;;7404057;19;20128;-79
2022/08/05 02:49:40;;;;;;;6.88;3.20;;;;;22.50;94106.00;;;;7404203;19;20177;-75
2022/08/05 02:52:17;;;;;;;4.65;3.38;;;;;22.70;94110.00;;;;7406872;19;20144;-77
2022/08/05 02:54:58;;;;;;;5.15;3.45;;;;;22.70;94104.00;;;;7401561;19;20152;-77
2022/08/05 02:57:39;;;;;;;5.25;3.38;;;;;22.40;94103.00;;;;7405679;19;20133;-77
2022/08/05 03:00:27;;;;;;;9.52;4.00;;;;;22.40;94109.00;;;;7404055;19;20151;-77
2022/08/05 03:03:03;;;;;;;7.80;3.53;;;;;22.40;94098.00;;;;7400969;19;20515;-76
2022/08/05 03:05:38;;;;;;;11.52;3.45;;;;;22.50;94105.00;;;;7406456;19;20487;-77
2022/08/05 03:08:35;;;;;;;5.82;3.03;;;;;22.40;94090.00;;;;7403086;19;20615;-76
2022/08/05 03:11:02;;;;;;;7.00;3.47;;;;;22.30;94099.00;;;;7394160;19;20152;-76
2022/08/05 03:13:57;;;;;;;4.95;3.30;;;;;22.30;94093.00;;;;7397335;19;20141;-75
2022/08/05 03:16:30;;;;;;;8.30;3.88;;;;;22.10;94084.00;;;;7397496;19;20889;-75
2022/08/05 03:19:04;;;;;;;4.53;3.28;;;;;22.20;94074.00;;;;7396435;19;20621;-75
2022/08/05 03:21:58;;;;;;;8.10;3.78;;;;;22.20;94082.00;;;;7395028;19;20476;-77
2022/08/05 03:24:47;;;;;;;4.57;3.70;;;;;22.30;94077.00;;;;7397136;19;20636;-75
2022/08/05 03:27:20;;;;;;;10.50;3.55;;;;;22.10;94076.00;;;;7395239;19;20462;-78
2022/08/05 03:30:14;;;;;;;6.53;3.47;;;;;22.00;94080.00;;;;7396529;19;20606;-76
2022/08/05 03:32:42;;;;;;;5.57;3.30;;;;;21.90;94084.00;;;;7393702;19;20602;-78
2022/08/05 03:35:19;;;;;;;4.07;2.97;;;;;21.80;94076.00;;;;7398086;19;20448;-77
2022/08/05 03:37:47;;;;;;;6.55;3.63;;;;;21.80;94072.00;;;;7395228;19;20525;-78
2022/08/05 03:40:19;;;;;;;6.70;3.22;;;;;21.70;94071.00;;;;7397645;19;20976;-77
2022/08/05 03:42:59;;;;;;;9.50;3.20;;;;;21.60;94061.00;;;;7393163;19;20598;-77
2022/08/05 03:45:47;;;;;;;5.75;3.08;;;;;21.50;94075.00;;;;7393998;19;20170;-76
2022/08/05 03:48:29;;;;;;;5.40;3.03;;;;;21.40;94077.00;;;;7396997;19;20148;-78
2022/08/05 03:51:26;;;;;;;7.00;3.55;;;;;21.20;94082.00;;;;7392722;19;20136;-77
2022/08/05 03:54:32;;;;;;;5.63;3.00;;;;;21.10;94082.00;;;;7396375;19;20622;-77
2022/08/05 03:57:25;;;;;;;7.25;3.15;;;;;21.10;94091.00;;;;7390874;19;20189;-77
2022/08/05 04:00:12;;;;;;;11.32;3.38;;;;;21.10;94109.00;;;;7395382;19;20133;-78
2022/08/05 04:02:49;;;;;;;11.68;3.97;;;;;21.20;94116.00;;;;7391518;19;20658;-78
2022/08/05 04:05:33;;;;;;;4.88;3.50;;;;;21.00;94125.00;;;;7396660;19;20132;-78
2022/08/05 04:08:03;;;;;;;9.45;3.65;;;;;21.40;94128.00;;;;7398174;19;20591;-77
2022/08/05 04:10:58;;;;;;;7.50;3.90;;;;;21.80;94144.00;;;;7398026;19;20477;-78
2022/08/05 04:13:29;;;;;;;13.23;3.50;;;;;21.60;94151.00;;;;7393885;19;20135;-78
2022/08/05 04:16:18;;;;;;;6.60;3.35;;;;;21.70;94152.00;;;;7396601;19;20133;-78
2022/08/05 04:18:54;;;;;;;7.95;3.67;;;;;21.60;94153.00;;;;7394983;19;20139;-76
2022/08/05 04:21:43;;;;;;;4.57;3.78;;;;;21.60;94155.00;;;;7391389;19;20231;-76
2022/08/05 04:24:30;;;;;;;8.80;3.45;;;;;21.60;94151.00;;;;7396327;19;20144;-76
2022/08/05 04:27:11;;;;;;;6.20;3.55;;;;;21.50;94157.00;;;;7394953;19;20132;-76
2022/08/05 04:29:39;;;;;;;11.57;3.40;;;;;21.70;94171.00;;;;7393629;19;20620;-77
2022/08/05 04:32:14;;;;;;;9.15;3.50;;;;;22.00;94184.00;;;;7393017;19;20615;-77
2022/08/05 04:34:57;;;;;;;5.28;3.33;;;;;22.10;94186.00;;;;7393603;19;20187;-77
2022/08/05 04:37:32;;;;;;;7.35;3.60;;;;;22.20;94205.00;;;;7394321;19;20120;-78
2022/08/05 04:40:20;;;;;;;8.13;3.42;;;;;22.50;94221.00;;;;7395889;19;20129;-76
2022/08/05 04:42:55;;;;;;;7.68;3.17;;;;;22.60;94248.00;;;;7391418;19;20160;-77
2022/08/05 04:45:24;;;;;;;6.60;2.92;;;;;22.60;94257.00;;;;7396692;19;20125;-76
2022/08/05 04:48:16;;;;;;;7.65;3.38;;;;;22.60;94259.00;;;;7394975;19;20141;-77
2022/08/05 04:50:55;;;;;;;7.07;3.42;;;;;22.60;94261.00;;;;7399057;19;20128;-76
2022/08/05 04:53:39;;;;;;;8.05;3.80;;;;;22.10;94283.00;;;;7396558;19;20133;-76
2022/08/05 04:56:13;;;;;;;9.60;3.47;;;;;21.50;94296.00;;;;7394710;19;20196;-76
2022/08/05 04:59:01;;;;;;;8.90;4.20;;;;;21.00;94309.00;;;;7394397;19;20883;-76
2022/08/05 05:01:49;;;;;;;7.38;4.55;;;;;20.20;94316.00;;;;7393008;19;20184;-77
2022/08/05 05:04:34;;;;;;;9.15;4.85;;;;;19.60;94311.00;;;;7396991;19;20124;-76
2022/08/05 05:07:15;;;;;;;5.88;4.72;;;;;19.40;94315.00;;;;7393602;19;20587;-77
2022/08/05 05:09:44;;;;;;;8.05;5.05;;;;;19.30;94305.00;;;;7384187;19;20600;-76
2022/08/05 05:12:20;;;;;;;8.35;5.38;;;;;19.30;94314.00;;;;7392178;19;20617;-77
2022/08/05 05:14:48;;;;;;;7.63;5.95;;;;;19.50;94319.00;;;;7395598;19;20141;-78
2022/08/05 05:17:17;;;;;;;8.40;6.07;;;;;19.50;94313.00;;;;7395633;19;20656;-79
2022/08/05 05:20:25;;;;;;;12.55;6.40;;;;;19.50;94321.00;;;;7392744;19;20145;-78
2022/08/05 05:23:07;;;;;;;9.77;5.82;;;;;19.70;94323.00;;;;7392380;19;20907;-77
2022/08/05 05:25:46;;;;;;;11.88;7.38;;;;;19.80;94319.00;;;;7394231;19;20137;-77
2022/08/05 05:28:14;;;;;;;11.70;7.30;;;;;20.00;94312.00;;;;7392919;19;20125;-78
2022/08/05 05:30:51;;;;;;;11.57;6.05;;;;;20.30;94315.00;;;;7392797;19;20153;-76
2022/08/05 05:33:19;;;;;;;10.40;5.95;;;;;20.60;94327.00;;;;7391811;19;20235;-76
2022/08/05 05:35:56;;;;;;;7.30;5.65;;;;;20.90;94326.00;;;;7393329;19;20129;-76
2022/08/05 05:38:30;;;;;;;6.60;5.72;;;;;21.20;94321.00;;;;7397975;19;20136;-77
2022/08/05 05:41:00;;;;;;;8.38;5.20;;;;;21.30;94308.00;;;;7394225;19;20250;-77
2022/08/05 05:43:28;;;;;;;9.88;5.25;;;;;21.60;94305.00;;;;7394001;19;20490;-77
2022/08/05 05:46:22;;;;;;;6.43;4.75;;;;;21.80;94289.00;;;;7394342;19;20125;-78
2022/08/05 05:48:50;;;;;;;6.15;4.85;;;;;22.00;94275.00;;;;7391172;19;20600;-77
2022/08/05 05:51:33;;;;;;;5.93;4.10;;;;;22.10;94267.00;;;;7393431;19;20630;-79
2022/08/05 05:54:17;;;;;;;15.85;4.55;;;;;22.30;94271.00;;;;7394501;19;20139;-74
2022/08/05 05:57:11;;;;;;;6.78;3.72;;;;;22.70;94272.00;;;;7394870;19;20469;-78
2022/08/05 05:59:40;;;;;;;4.88;3.35;;;;;22.60;94268.00;;;;7391745;19;20588;-78
2022/08/05 06:02:16;;;;;;;5.60;3.20;;;;;23.00;94272.00;;;;7391076;19;20613;-76
2022/08/05 06:04:59;;;;;;;4.68;2.85;;;;;23.10;94273.00;;;;7394148;19;20605;-79
2022/08/05 06:07:43;;;;;;;5.53;2.90;;;;;23.00;94278.00;;;;7393761;19;20124;-76
2022/08/05 06:10:28;;;;;;;7.10;2.75;;;;;22.80;94290.00;;;;7392944;19;20160;-77
2022/08/05 06:13:19;;;;;;;3.72;2.55;;;;;22.50;94287.00;;;;7397153;19;20133;-76
2022/08/05 06:15:49;;;;;;;4.95;2.50;;;;;22.30;94284.00;;;;7397065;19;20215;-78
2022/08/05 06:18:43;;;;;;;5.15;2.20;;;;;22.30;94295.00;;;;7393115;19;20168;-77
2022/08/05 06:21:19;;;;;;;4.35;2.50;;;;;22.20;94290.00;;;;7392707;19;20670;-77
2022/08/05 06:24:11;;;;;;;4.22;2.30;;;;;22.00;94279.00;;;;7391912;19;20152;-76
2022/08/05 06:26:41;;;;;;;3.80;2.40;;;;;22.00;94292.00;;;;7394005;19;20128;-77
2022/08/05 06:29:20;;;;;;;3.30;2.45;;;;;22.10;94300.00;;;;7391019;19;20152;-78
2022/08/05 06:32:08;;;;;;;3.28;2.22;;;;;22.00;94295.00;;;;7393146;19;20125;-76
2022/08/05 06:35:10;;;;;;;4.35;2.40;;;;;22.00;94286.00;;;;7395168;19;20627;-79
2022/08/05 06:37:58;;;;;;;2.22;2.00;;;;;22.30;94284.00;;;;7394120;19;20498;-78
2022/08/05 06:40:41;;;;;;;4.85;2.70;;;;;22.70;94288.00;;;;7392758;19;20120;-76
2022/08/05 06:43:12;;;;;;;3.88;2.05;;;;;22.70;94298.00;;;;7393780;19;20129;-76
2022/08/05 06:46:06;;;;;;;3.35;2.20;;;;;22.20;94318.00;;;;7398030;19;20204;-78
2022/08/05 06:48:34;;;;;;;2.30;2.10;;;;;22.30;94322.00;;;;7399786;19;20596;-79
2022/08/05 06:51:25;;;;;;;2.30;2.10;;;;;22.50;94316.00;;;;7398195;19;20156;-75
2022/08/05 06:54:02;;;;;;;2.55;2.00;;;;;22.60;94316.00;;;;7396649;19;20163;-79
2022/08/05 06:56:44;;;;;;;5.43;2.00;;;;;23.10;94319.00;;;;7398375;19;20147;-79
2022/08/05 06:59:32;;;;;;;2.95;2.10;;;;;23.40;94333.00;;;;7395911;19;20133;-77
2022/08/05 07:02:23;;;;;;;4.05;1.92;;;;;23.30;94330.00;;;;7396076;19;20220;-77
2022/08/05 07:04:51;;;;;;;3.22;2.17;;;;;23.20;94324.00;;;;7396897;19;20163;-78
2022/08/05 07:07:26;;;;;;;3.55;2.38;;;;;23.60;94326.00;;;;7393626;19;20163;-76
2022/08/05 07:10:10;;;;;;;2.80;2.30;;;;;23.90;94328.00;;;;7395530;19;20212;-77
2022/08/05 07:18:31;;;;;;;3.97;2.65;;;;;24.80;94333.00;;;;7400327;19;20137;-76
2022/08/05 07:21:13;;;;;;;2.80;2.10;;;;;24.50;94345.00;;;;7397310;19;20149;-76
2022/08/05 07:23:52;;;;;;;2.97;1.90;;;;;24.10;94346.00;;;;7392162;19;20958;-76
2022/08/05 07:26:23;;;;;;;2.60;2.22;;;;;24.30;94343.00;;;;7397010;19;20128;-76
2022/08/05 07:28:57;;;;;;;3.83;2.00;;;;;24.70;94350.00;;;;7397797;19;20145;-78
2022/08/05 07:31:26;;;;;;;4.43;2.00;;;;;25.20;94348.00;;;;7396517;19;20846;-76
2022/08/05 07:34:16;;;;;;;3.00;2.05;;;;;25.30;94350.00;;;;7394351;19;20133;-75
2022/08/05 07:36:55;;;;;;;3.20;2.15;;;;;25.10;94344.00;;;;7396837;19;20177;-76
2022/08/05 07:39:22;;;;;;;4.43;2.00;;;;;25.30;94347.00;;;;7397922;19;20467;-75
2022/08/05 07:42:10;;;;;;;4.22;2.35;;;;;25.10;94354.00;;;;7397192;19;20494;-76
2022/08/05 07:44:58;;;;;;;2.92;1.98;;;;;25.40;94352.00;;;;7396197;19;20159;-76
2022/08/05 07:47:26;;;;;;;2.33;2.13;;;;;25.70;94355.00;;;;7396129;19;20603;-77
2022/08/05 07:50:09;;;;;;;2.30;2.10;;;;;25.50;94355.00;;;;7394051;19;20165;-77
2022/08/05 07:52:42;;;;;;;2.92;2.00;;;;;25.50;94349.00;;;;7396221;19;20149;-76
2022/08/05 07:55:15;;;;;;;9.88;2.28;;;;;25.20;94343.00;;;;7392257;19;20136;-77
2022/08/05 07:58:03;;;;;;;3.63;2.28;;;;;25.50;94334.00;;;;7396037;19;20125;-74
2022/08/05 08:00:57;;;;;;;3.60;1.85;;;;;25.90;94339.00;;;;7394905;19;20656;-77
2022/08/05 08:03:26;;;;;;;4.65;2.10;;;;;26.20;94336.00;;;;7393681;19;20148;-77
2022/08/05 08:06:11;;;;;;;2.65;2.13;;;;;26.10;94327.00;;;;7395260;19;20133;-77
2022/08/05 08:08:39;;;;;;;2.53;1.95;;;;;26.10;94332.00;;;;7395100;19;20180;-77
2022/08/05 08:11:15;;;;;;;2.42;1.90;;;;;26.40;94319.00;;;;7394839;19;20140;-75
2022/08/05 08:13:53;;;;;;;2.42;2.08;;;;;26.30;94331.00;;;;7395030;19;20136;-77
2022/08/05 08:16:27;;;;;;;2.50;2.03;;;;;26.30;94321.00;;;;7395813;19;20643;-78
2022/08/05 08:19:15;;;;;;;2.92;2.10;;;;;25.60;94319.00;;;;7395011;19;20148;-77
2022/08/05 08:22:16;;;;;;;2.50;1.83;;;;;25.60;94312.00;;;;7393431;19;20644;-76
2022/08/05 08:24:43;;;;;;;3.03;1.73;;;;;25.90;94310.00;;;;7393953;19;20606;-78
2022/08/05 08:27:19;;;;;;;3.05;2.30;;;;;26.00;94310.00;;;;7396229;19;20148;-76
2022/08/05 08:29:47;;;;;;;2.40;2.20;;;;;25.90;94306.00;;;;7394969;19;20151;-78
2022/08/05 08:32:35;;;;;;;3.70;2.10;;;;;25.30;94315.00;;;;7395680;19;20524;-76
2022/08/05 08:35:10;;;;;;;4.47;2.00;;;;;25.90;94307.00;;;;7394157;19;20463;-78
2022/08/05 08:37:40;;;;;;;2.30;2.08;;;;;25.90;94299.00;;;;7398797;19;20516;-77
2022/08/05 08:40:12;;;;;;;2.97;2.40;;;;;25.80;94290.00;;;;7397122;19;20141;-78
2022/08/05 08:42:51;;;;;;;2.55;2.03;;;;;26.00;94283.00;;;;7395416;19;20626;-77
2022/08/05 08:45:21;;;;;;;2.40;2.17;;;;;26.50;94287.00;;;;7392866;19;20149;-78
2022/08/05 08:48:01;;;;;;;2.97;2.05;;;;;26.50;94280.00;;;;7395351;19;20164;-78
2022/08/05 08:50:41;;;;;;;2.03;1.80;;;;;26.90;94283.00;;;;7394347;19;20530;-79
2022/08/05 08:53:37;;;;;;;3.40;2.50;;;;;26.90;94275.00;;;;7392587;19;20129;-77
2022/08/05 08:56:11;;;;;;;2.20;2.00;;;;;27.10;94282.00;;;;7395615;19;20619;-79
2022/08/05 08:58:47;;;;;;;2.13;1.80;;;;;27.00;94275.00;;;;7392195;19;20156;-79
2022/08/05 09:01:18;;;;;;;3.47;2.15;;;;;27.20;94275.00;;;;7391982;19;20208;-78
2022/08/05 09:03:50;;;;;;;2.03;1.83;;;;;27.50;94265.00;;;;7390579;19;20159;-77
2022/08/05 09:06:27;;;;;;;2.58;2.22;;;;;27.40;94267.00;;;;7393010;19;20157;-77
2022/08/05 09:09:00;;;;;;;3.63;1.83;;;;;27.70;94264.00;;;;7391839;19;20182;-76
2022/08/05 09:11:36;;;;;;;2.00;1.90;;;;;28.30;94257.00;;;;7391954;19;20162;-78
2022/08/05 09:14:20;;;;;;;2.15;1.90;;;;;28.30;94266.00;;;;7392403;19;20129;-77
2022/08/05 09:17:14;;;;;;;3.65;2.10;;;;;28.80;94252.00;;;;7393097;19;20197;-78
2022/08/05 09:20:03;;;;;;;2.28;1.90;;;;;28.90;94247.00;;;;7390902;19;20148;-79
2022/08/05 09:23:13;;;;;;;2.08;1.85;;;;;29.20;94251.00;;;;7391442;19;20740;-78
2022/08/05 09:25:52;;;;;;;1.95;1.73;;;;;29.60;94241.00;;;;7391218;19;20149;-76
2022/08/05 09:28:35;;;;;;;1.90;1.80;;;;;29.90;94253.00;;;;7392545;19;20651;-79
2022/08/05 09:31:09;;;;;;;4.28;2.00;;;;;29.90;94252.00;;;;7392376;19;20129;-78
2022/08/05 09:34:06;;;;;;;2.67;2.00;;;;;29.60;94254.00;;;;7389507;19;20618;-76
2022/08/05 09:36:51;;;;;;;2.58;1.73;;;;;29.40;94267.00;;;;7391521;19;20141;-79
2022/08/05 09:39:28;;;;;;;3.03;1.80;;;;;29.60;94260.00;;;;7391590;19;20619;-76
2022/08/05 09:42:21;;;;;;;2.17;1.75;;;;;29.90;94262.00;;;;7393029;19;20584;-77
2022/08/05 09:45:07;;;;;;;3.28;1.95;;;;;30.90;94245.00;;;;7390280;19;20146;-77
2022/08/05 09:47:54;;;;;;;2.40;2.17;;;;;30.50;94256.00;;;;7389659;19;20132;-78
2022/08/05 09:50:37;;;;;;;2.10;1.92;;;;;30.90;94257.00;;;;7392447;19;20149;-78
2022/08/05 09:53:11;;;;;;;3.78;1.90;;;;;30.90;94264.00;;;;7391639;19;20602;-76
2022/08/05 09:56:00;;;;;;;2.63;2.13;;;;;30.60;94257.00;;;;7393607;19;20480;-77
2022/08/05 09:58:40;;;;;;;2.13;1.92;;;;;30.00;94278.00;;;;7392946;19;20184;-78
2022/08/05 10:01:16;;;;;;;2.78;1.88;;;;;30.00;94264.00;;;;7388570;19;20143;-77
2022/08/05 10:04:03;;;;;;;2.40;2.20;;;;;30.40;94257.00;;;;7388787;19;20619;-77
2022/08/05 10:06:42;;;;;;;2.22;2.03;;;;;30.50;94261.00;;;;7390120;19;20132;-76
2022/08/05 10:09:25;;;;;;;1.80;1.70;;;;;30.80;94261.00;;;;7391775;19;20137;-77
2022/08/05 10:12:12;;;;;;;3.03;2.20;;;;;30.80;94262.00;;;;7392184;19;20148;-78
2022/08/05 10:15:20;;;;;;;2.30;2.10;;;;;30.50;94263.00;;;;7390365;19;20659;-78
2022/08/05 10:18:21;;;;;;;2.00;1.85;;;;;30.90;94260.00;;;;7394218;19;20519;-78
2022/08/05 10:20:55;;;;;;;1.92;1.73;;;;;31.10;94258.00;;;;7398555;19;20189;-78
2022/08/05 10:23:41;;;;;;;3.20;2.05;;;;;31.60;94255.00;;;;7395554;19;20164;-79
2022/08/05 10:26:26;;;;;;;2.63;2.17;;;;;31.80;94259.00;;;;7398350;19;20158;-78
2022/08/05 10:29:01;;;;;;;2.88;2.25;;;;;31.50;94256.00;;;;7398280;19;20153;-75
2022/08/05 10:31:30;;;;;;;4.22;2.20;;;;;31.80;94255.00;;;;7396600;19;20140;-78
2022/08/05 10:34:19;;;;;;;2.35;2.15;;;;;31.90;94256.00;;;;7395373;19;20137;-78
2022/08/05 10:36:58;;;;;;;4.47;1.88;;;;;31.50;94265.00;;;;7397759;19;20132;-77
2022/08/05 10:39:32;;;;;;;4.18;2.03;;;;;31.20;94253.00;;;;7396727;19;20148;-80
2022/08/05 10:42:27;;;;;;;2.55;1.80;;;;;30.90;94250.00;;;;7399035;19;20844;-78
2022/08/05 10:45:03;;;;;;;3.40;1.90;;;;;31.80;94242.00;;;;7394069;19;20464;-78
2022/08/05 10:47:57;;;;;;;2.10;1.90;;;;;32.60;94247.00;;;;7396908;19;20629;-78
2022/08/05 10:50:58;;;;;;;3.08;2.13;;;;;31.90;94260.00;;;;7398625;19;20627;-80
2022/08/05 10:53:54;;;;;;;3.88;2.10;;;;;32.40;94253.00;;;;7396912;19;20152;-78
2022/08/05 10:56:35;;;;;;;2.15;2.00;;;;;33.00;94244.00;;;;7394650;19;20152;-80
2022/08/05 10:59:16;;;;;;;2.40;2.20;;;;;32.40;94247.00;;;;7395878;19;20152;-80
2022/08/05 11:02:13;;;;;;;3.38;2.10;;;;;32.70;94246.00;;;;7394960;19;20166;-79
2022/08/05 11:05:09;;;;;;;2.58;2.00;;;;;32.60;94250.00;;;;7393345;19;20603;-80
2022/08/05 11:07:59;;;;;;;2.42;2.20;;;;;33.00;94243.00;;;;7394303;19;20178;-80
2022/08/05 11:10:53;;;;;;;2.92;2.17;;;;;33.30;94245.00;;;;7395082;19;20148;-79
2022/08/05 11:13:49;;;;;;;2.50;2.30;;;;;34.30;94257.00;;;;7393022;19;20627;-78
2022/08/05 11:16:28;;;;;;;4.25;2.20;;;;;33.90;94251.00;;;;7392725;19;20180;-78
2022/08/05 11:19:30;;;;;;;1.85;1.70;;;;;33.80;94240.00;;;;7393237;19;20220;-77
2022/08/05 11:22:53;;;;;;;3.50;2.17;;;;;33.90;94237.00;;;;7391476;19;20148;-76
2022/08/05 11:25:37;;;;;;;5.95;2.20;;;;;34.60;94251.00;;;;7389510;19;20132;-76
2022/08/05 11:28:32;;;;;;;3.05;2.22;;;;;33.80;94268.00;;;;7396884;19;20128;-77
2022/08/05 11:31:02;;;;;;;2.50;2.30;;;;;33.00;94282.00;;;;7392221;19;20657;-77
2022/08/05 11:33:46;;;;;;;2.85;2.20;;;;;32.60;94282.00;;;;7394308;19;20127;-78
2022/08/05 11:36:39;;;;;;;4.03;2.40;;;;;31.50;94302.00;;;;7396653;19;20214;-76
2022/08/05 11:39:47;;;;;;;2.80;2.50;;;;;30.60;94293.00;;;;7397198;19;20505;-78
2022/08/05 11:42:21;;;;;;;2.67;2.38;;;;;30.20;94291.00;;;;7395815;19;20168;-76
2022/08/05 11:45:02;;;;;;;4.43;2.22;;;;;29.90;94307.00;;;;7392990;19;20147;-78
2022/08/05 11:47:35;;;;;;;5.78;2.33;;;;;29.90;94297.00;;;;7394862;19;20569;-78
2022/08/05 11:50:16;;;;;;;3.53;2.30;;;;;30.30;94292.00;;;;7394641;19;20152;-76
2022/08/05 11:52:44;;;;;;;4.38;2.40;;;;;30.80;94271.00;;;;7397353;19;20143;-77
2022/08/05 11:55:24;;;;;;;2.17;2.00;;;;;32.00;94273.00;;;;7398995;19;20136;-76
2022/08/05 11:58:03;;;;;;;3.83;2.22;;;;;31.50;94292.00;;;;7394199;19;20129;-79
2022/08/05 12:00:39;;;;;;;5.68;2.50;;;;;32.00;94272.00;;;;7395430;19;20132;-76
2022/08/05 12:03:24;;;;;;;2.30;2.10;;;;;31.70;94264.00;;;;7391115;19;20156;-77
2022/08/05 12:06:04;;;;;;;3.42;2.30;;;;;32.10;94262.00;;;;7394482;19;20136;-75
2022/08/05 12:08:38;;;;;;;2.50;2.30;;;;;31.80;94265.00;;;;7394844;19;20152;-76
2022/08/05 12:11:29;;;;;;;2.80;2.20;;;;;32.50;94256.00;;;;7392608;19;20528;-78
2022/08/05 12:14:08;;;;;;;3.17;2.30;;;;;32.20;94261.00;;;;7394344;19;20124;-77
2022/08/05 12:16:46;;;;;;;3.05;2.50;;;;;32.10;94258.00;;;;7394003;19;20593;-78
2022/08/05 12:19:16;;;;;;;3.17;2.30;;;;;32.00;94259.00;;;;7386673;19;20610;-77
2022/08/05 12:22:53;;;;;;;2.47;2.28;;;;;32.00;94269.00;;;;7392599;19;20184;-77
2022/08/05 12:25:21;;;;;;;2.85;2.30;;;;;30.70;94278.00;;;;7389068;19;20133;-78
2022/08/05 12:27:57;;;;;;;3.15;2.10;;;;;30.70;94270.00;;;;7392195;19;20164;-79
2022/08/05 12:30:37;;;;;;;3.10;2.20;;;;;31.10;94271.00;;;;7394364;19;20488;-76
2022/08/05 12:33:12;;;;;;;3.42;2.30;;;;;31.00;94255.00;;;;7395044;19;20124;-77
2022/08/05 12:36:01;;;;;;;2.65;2.25;;;;;31.60;94272.00;;;;7393205;19;20156;-78
2022/08/05 12:38:39;;;;;;;2.75;2.30;;;;;31.80;94251.00;;;;7392034;19;20132;-77
2022/08/05 12:41:15;;;;;;;2.53;2.30;;;;;32.20;94265.00;;;;7393429;19;20220;-79
2022/08/05 12:44:13;;;;;;;3.17;2.40;;;;;31.70;94267.00;;;;7393017;19;20171;-77
2022/08/05 12:47:00;;;;;;;2.50;2.30;;;;;31.50;94276.00;;;;7391181;19;20136;-77
2022/08/05 12:49:44;;;;;;;2.78;2.20;;;;;31.50;94269.00;;;;7392588;19;20200;-75
2022/08/05 12:52:34;;;;;;;2.92;2.40;;;;;31.30;94267.00;;;;7393089;19;20152;-75
2022/08/05 12:55:23;;;;;;;2.47;2.28;;;;;31.30;94274.00;;;;7392238;19;20176;-76
2022/08/05 12:57:57;;;;;;;3.47;2.50;;;;;31.40;94276.00;;;;7393282;19;20128;-77
2022/08/05 13:00:51;;;;;;;2.40;2.20;;;;;31.00;94277.00;;;;7392884;19;20726;-77
2022/08/05 13:03:39;;;;;;;2.58;2.10;;;;;30.50;94282.00;;;;7389706;19;20634;-76
2022/08/05 13:06:18;;;;;;;3.03;2.42;;;;;30.00;94296.00;;;;7389215;19;20128;-77
2022/08/05 13:08:47;;;;;;;2.42;2.22;;;;;29.30;94298.00;;;;7393779;19;20136;-76
2022/08/05 13:11:28;;;;;;;3.08;2.55;;;;;29.40;94297.00;;;;7395931;19;20157;-77
2022/08/05 13:14:24;;;;;;;5.40;2.42;;;;;29.60;94292.00;;;;7392631;19;20195;-77
2022/08/05 13:17:07;;;;;;;4.80;2.55;;;;;29.50;94297.00;;;;7395540;19;20156;-77
2022/08/05 13:19:58;;;;;;;4.85;2.40;;;;;29.00;94294.00;;;;7393925;19;20144;-77
2022/08/05 13:22:45;;;;;;;3.38;2.38;;;;;29.00;94287.00;;;;7396136;19;20145;-75
2022/08/05 13:25:15;;;;;;;5.13;2.40;;;;;29.50;94268.00;;;;7392750;19;20147;-79
2022/08/05 13:28:10;;;;;;;5.63;2.63;;;;;30.50;94275.00;;;;7391447;19;20144;-78
2022/08/05 13:30:40;;;;;;;2.40;2.20;;;;;30.60;94269.00;;;;7390031;19;20625;-78
2022/08/05 13:33:17;;;;;;;4.85;2.45;;;;;29.90;94278.00;;;;7394231;19;20155;-75